Meteo Giornale » Osservazioni meteo Italia » Cagliari-Elmas

ore: 07:20 - Osservazioni Meteo Cagliari-Elmas
Lat. 39° 15' N Lon. 9° 4' E Alt. 4 metri s.l.m.

sereno Europe/Rome

22 °C

Sereno

Temp. 24 Ore

21 °C

36 °C

Nord

20.3 Km/h

Dew point 16 °C

Umidità 68 %

Visibilità  10 Km

Il sole sorge alle ore 06:40

Il sole tramonta alle ore 20:13

Data e Ora Cielo e Fenomeni T °C DP °C Um. % Pres. hPa Vis. km Vento km/h
Oggi h: 07:20 sereno Sereno 22 16 68 1015 10 N 20.3
Oggi h: 06:50 sereno Sereno 23 14 56 1015 10 N/NO 22.2
Oggi h: 06:20 sereno Sereno 24 13 50 1015 10 N/NO 25.9
Oggi h: 05:50 sereno Sereno 23 14 56 1015 10 N 20.3
Oggi h: 05:20 sereno Sereno 23 15 60 1015 10 N/NO 22.2
Oggi h: 04:50 sereno Sereno 23 16 64 1015 10 N/NO 25.9
Oggi h: 04:20 sereno Sereno 24 17 64 1015 10 N/NO 27.8
Oggi h: 03:50 sereno Sereno 24 16 60 1015 10 N/NO 25.9
Oggi h: 03:20 sereno Sereno 24 16 60 1015 10 N/NO 27.8
Oggi h: 02:50 sereno Sereno 24 17 64 1015 10 N 22.2
Oggi h: 02:20 sereno Sereno 24 17 64 1015 10 N/NO 20.3
Oggi h: 01:50 sereno Sereno 25 17 61 1015 10 N/NO 18.5
Oggi h: 01:20 sereno Sereno 25 18 65 1015 10 N/NO 16.7
Oggi h: 00:50 sereno Sereno 25 17 61 1016 10 N/NO 11.1
Oggi h: 00:20 sereno Sereno 26 17 57 1016 10 N/NO 20.3
Ieri h: 23:50 sereno Sereno 26 16 54 1015 10 N/NO 22.2
Ieri h: 23:20 sereno Sereno 27 15 47 1015 10 N/NO 25.9
Ieri h: 22:50 sereno Sereno 28 14 42 1015 10 N 18.5
Ieri h: 22:20 sereno Sereno 28 15 45 1015 10 N/NO 18.5
Ieri h: 21:50 sereno Sereno 28 16 48 1015 10 N 20.3
Ieri h: 21:20 sereno Sereno 29 16 45 1015 10 N/NO 22.2
Ieri h: 20:50 sereno Sereno 28 16 48 1014 10 N/NO 14.8
Ieri h: 20:20 sereno Sereno 29 17 48 1014 10 N 16.7
Ieri h: 19:50 sereno Sereno 29 18 51 1014 10 N 24
Ieri h: 19:20 sereno Sereno 30 18 48 1014 10 N/NO 20.3
Ieri h: 18:50 sereno Sereno 32 17 40 1014 10 N 24
Ieri h: 18:20 sereno Sereno 33 17 38 1014 10 N 13
Ieri h: 17:50 sereno Sereno 31 21 55 1014 10 SE 13
Ieri h: 17:20 sereno Sereno 30 22 62 1014 10 E/SE 18.5
Ieri h: 16:50 sereno Sereno 31 22 58 1014 10 E/SE 20.3
Ieri h: 16:20 sereno Sereno 32 20 49 1014 10 SE 20.3
Ieri h: 15:50 sereno Sereno 34 17 36 1014 10 S 13
Ieri h: 15:20 sereno Sereno 34 18 38 1014 10 S/SE 14.8
Ieri h: 14:50 sereno Sereno 35 19 39 1014 10 S 14.8
Ieri h: 14:20 sereno Sereno 36 18 34 1014 10 SO 11.1
Ieri h: 13:50 sereno Sereno 36 12 23 1014 10 O 9.3
Ieri h: 13:20 sereno Sereno 35 13 26 1014 10 O/NO 11.1
Ieri h: 12:50 sereno Sereno 35 14 28 1014 10 O/NO 13
Ieri h: 12:20 sereno Sereno 34 15 32 1015 10 O/NO 16.7
Ieri h: 11:50 sereno Sereno 33 16 36 1015 10 NO 16.7
Ieri h: 11:20 sereno Sereno 32 16 38 1015 10 N/NO 20.3
Ieri h: 10:50 sereno Sereno 31 16 40 1015 10 N/NO 18.5
Ieri h: 10:20 sereno Sereno 29 19 54 1015 10 NO 16.7
Ieri h: 09:50 sereno Sereno 28 20 61 1015 10 NO 13
Ieri h: 09:20 sereno Sereno 26 19 65 1015 10 NO 16.7
Ieri h: 08:50 sereno Sereno 25 19 69 1015 10 NO 14.8
Ieri h: 08:20 sereno Sereno 23 19 78 1015 10 N/NO 14.8
Ieri h: 07:50 sereno Sereno 21 19 88 1015 10 N/NO 9.3